createdAt,value
2024-02-26T00:00:48.830Z,0
2024-02-26T00:01:50.368Z,0
2024-02-26T00:02:52.585Z,0
2024-02-26T00:03:54.631Z,0
2024-02-26T00:04:56.366Z,0
2024-02-26T00:05:58.773Z,0
2024-02-26T00:07:01.399Z,0
2024-02-26T00:08:06.959Z,0
2024-02-26T00:09:09.140Z,0
2024-02-26T00:10:10.927Z,0
2024-02-26T00:11:13.116Z,0
2024-02-26T00:12:15.407Z,0
2024-02-26T00:13:17.085Z,0
2024-02-26T00:14:18.709Z,0
2024-02-26T00:15:20.951Z,0
2024-02-26T00:16:22.499Z,0
2024-02-26T00:17:24.197Z,0
2024-02-26T00:18:26.840Z,0
2024-02-26T00:19:29.580Z,0
2024-02-26T00:20:31.223Z,0
2024-02-26T00:21:32.881Z,0
2024-02-26T00:22:34.463Z,0
2024-02-26T00:23:35.971Z,0
2024-02-26T00:24:37.518Z,0
2024-02-26T00:25:39.016Z,0
2024-02-26T00:26:41.195Z,0
2024-02-26T00:27:43.313Z,0
2024-02-26T00:28:45.058Z,0
2024-02-26T00:29:47.248Z,0
2024-02-26T00:30:48.897Z,0
2024-02-26T00:31:50.407Z,0
2024-02-26T00:32:52.583Z,0
2024-02-26T00:33:56.143Z,0
2024-02-26T00:34:58.668Z,0
2024-02-26T00:36:00.638Z,0
2024-02-26T00:37:02.511Z,0
2024-02-26T00:38:04.095Z,0
2024-02-26T00:39:06.505Z,0
2024-02-26T00:40:08.489Z,0
2024-02-26T00:41:10.201Z,0
2024-02-26T00:42:12.234Z,0
2024-02-26T00:43:14.227Z,0
2024-02-26T00:44:15.856Z,0
2024-02-26T00:45:18.533Z,0
2024-02-26T00:46:20.231Z,0
2024-02-26T00:47:21.804Z,0
2024-02-26T00:48:24.784Z,0
2024-02-26T00:49:26.879Z,0
2024-02-26T00:50:28.531Z,0
2024-02-26T00:51:31.032Z,0
2024-02-26T00:52:32.733Z,0
2024-02-26T00:53:34.496Z,0
2024-02-26T00:54:36.083Z,0
2024-02-26T00:55:37.654Z,0
2024-02-26T00:56:39.663Z,0
2024-02-26T00:57:41.316Z,0
2024-02-26T00:58:43.013Z,0
2024-02-26T00:59:45.090Z,0
2024-02-26T01:00:47.150Z,0
2024-02-26T01:01:49.159Z,0
2024-02-26T01:02:51.698Z,0
2024-02-26T01:03:54.361Z,0
2024-02-26T01:04:56.781Z,0
2024-02-26T01:06:02.057Z,0
2024-02-26T01:07:05.620Z,0
2024-02-26T01:08:08.364Z,0
2024-02-26T01:09:10.942Z,0
2024-02-26T01:10:12.631Z,0
2024-02-26T01:11:14.773Z,0
2024-02-26T01:12:17.231Z,0
2024-02-26T01:13:18.866Z,0
2024-02-26T01:14:20.428Z,0
2024-02-26T01:15:22.454Z,0
2024-02-26T01:16:24.163Z,0
2024-02-26T01:17:26.273Z,0
2024-02-26T01:18:29.284Z,0
2024-02-26T01:19:31.822Z,0
2024-02-26T01:20:33.401Z,0
2024-02-26T01:21:35.046Z,0
2024-02-26T01:22:36.711Z,0
2024-02-26T01:23:39.346Z,0
2024-02-26T01:24:40.910Z,0
2024-02-26T01:25:42.621Z,0
2024-02-26T01:26:44.724Z,0
2024-02-26T01:27:46.269Z,0
2024-02-26T01:28:47.816Z,0
2024-02-26T01:29:49.893Z,0
2024-02-26T01:30:51.545Z,0
2024-02-26T01:31:53.134Z,0
2024-02-26T01:32:56.232Z,0
2024-02-26T01:33:59.077Z,0
2024-02-26T01:35:00.821Z,0
2024-02-26T01:36:03.285Z,0
2024-02-26T01:37:04.918Z,0
2024-02-26T01:38:06.462Z,0
2024-02-26T01:39:08.788Z,0
2024-02-26T01:40:10.659Z,0
2024-02-26T01:41:12.169Z,0
2024-02-26T01:42:14.382Z,0
2024-02-26T01:43:16.102Z,0
2024-02-26T01:44:17.647Z,0
2024-02-26T01:45:19.949Z,0
2024-02-26T01:46:22.277Z,0
2024-02-26T01:47:23.851Z,0
2024-02-26T01:48:26.456Z,0
2024-02-26T01:49:29.093Z,0
2024-02-26T01:50:30.661Z,0
2024-02-26T01:51:32.166Z,0
2024-02-26T01:52:33.842Z,0
2024-02-26T01:53:35.403Z,0
2024-02-26T01:54:37.076Z,0
2024-02-26T01:55:38.752Z,0
2024-02-26T01:56:40.693Z,0
2024-02-26T01:57:42.453Z,0
2024-02-26T01:58:44.037Z,0
2024-02-26T01:59:46.092Z,0
2024-02-26T02:00:49.285Z,0
2024-02-26T02:01:50.881Z,0
2024-02-26T02:02:53.209Z,0
2024-02-26T02:03:55.141Z,0
2024-02-26T02:04:57.010Z,0
2024-02-26T02:05:59.785Z,0
2024-02-26T02:07:02.571Z,0
2024-02-26T02:08:04.310Z,0
2024-02-26T02:09:06.143Z,0
2024-02-26T02:10:07.967Z,0
2024-02-26T02:11:10.147Z,0
2024-02-26T02:12:12.294Z,0
2024-02-26T02:13:13.919Z,0
2024-02-26T02:14:15.410Z,0
2024-02-26T02:15:17.654Z,0
2024-02-26T02:16:19.325Z,0
2024-02-26T02:17:20.853Z,0
2024-02-26T02:18:23.426Z,0
2024-02-26T02:19:25.552Z,0
2024-02-26T02:20:27.147Z,0
2024-02-26T02:21:29.295Z,0
2024-02-26T02:22:30.880Z,0
2024-02-26T02:23:32.413Z,0
2024-02-26T02:24:34.249Z,0
2024-02-26T02:25:35.791Z,0
2024-02-26T02:26:37.370Z,0
2024-02-26T02:27:39.188Z,0
2024-02-26T02:28:40.807Z,0
2024-02-26T02:29:42.835Z,0
2024-02-26T02:30:44.329Z,0
2024-02-26T02:31:46.111Z,0
2024-02-26T02:32:48.496Z,0
2024-02-26T02:33:51.901Z,0
2024-02-26T02:34:54.249Z,0
2024-02-26T02:35:56.927Z,0
2024-02-26T02:36:58.590Z,0
2024-02-26T02:38:00.403Z,0
2024-02-26T02:39:02.548Z,0
2024-02-26T02:40:04.385Z,0
2024-02-26T02:41:06.164Z,0
2024-02-26T02:42:08.261Z,0
2024-02-26T02:43:09.858Z,0
2024-02-26T02:44:11.439Z,0
2024-02-26T02:45:13.672Z,0
2024-02-26T02:46:15.474Z,0
2024-02-26T02:47:17.345Z,0
2024-02-26T02:48:19.981Z,0
2024-02-26T02:49:22.741Z,0
2024-02-26T02:50:24.313Z,0
2024-02-26T02:51:26.432Z,0
2024-02-26T02:52:28.051Z,0
2024-02-26T02:53:29.624Z,0
2024-02-26T02:54:32.034Z,0
2024-02-26T02:55:33.651Z,0
2024-02-26T02:56:35.192Z,0
2024-02-26T02:57:36.869Z,0
2024-02-26T02:58:38.522Z,0
2024-02-26T02:59:41.252Z,0
2024-02-26T03:00:43.666Z,0
2024-02-26T03:01:45.380Z,0
2024-02-26T03:02:47.700Z,0
2024-02-26T03:03:49.776Z,0
2024-02-26T03:04:51.813Z,0
2024-02-26T03:05:54.174Z,0
2024-02-26T03:06:56.597Z,0
2024-02-26T03:07:58.249Z,0
2024-02-26T03:08:59.929Z,0
2024-02-26T03:10:01.920Z,0
2024-02-26T03:11:03.943Z,0
2024-02-26T03:12:06.140Z,0
2024-02-26T03:13:07.864Z,0
2024-02-26T03:14:09.423Z,0
2024-02-26T03:15:11.614Z,0
2024-02-26T03:16:13.878Z,0
2024-02-26T03:17:15.508Z,0
2024-02-26T03:18:18.289Z,0
2024-02-26T03:19:21.054Z,0
2024-02-26T03:20:22.735Z,0
2024-02-26T03:21:24.851Z,0
2024-02-26T03:22:26.648Z,0
2024-02-26T03:23:28.160Z,0
2024-02-26T03:24:30.343Z,0
2024-02-26T03:25:31.949Z,0
2024-02-26T03:26:33.508Z,0
2024-02-26T03:27:35.075Z,0
2024-02-26T03:28:36.590Z,0
2024-02-26T03:29:38.110Z,0
2024-02-26T03:30:39.664Z,0
2024-02-26T03:31:41.177Z,0
2024-02-26T03:32:43.922Z,0
2024-02-26T03:33:47.028Z,0
2024-02-26T03:34:49.985Z,0
2024-02-26T03:35:52.179Z,0
2024-02-26T03:36:53.647Z,0
2024-02-26T03:37:55.186Z,0
2024-02-26T03:38:56.921Z,0
2024-02-26T03:39:58.995Z,0
2024-02-26T03:41:01.143Z,0
2024-02-26T03:42:03.195Z,0
2024-02-26T03:43:04.850Z,0
2024-02-26T03:44:06.480Z,0
2024-02-26T03:45:08.866Z,0
2024-02-26T03:46:10.582Z,0
2024-02-26T03:47:12.223Z,0
2024-02-26T03:48:15.170Z,0
2024-02-26T03:49:17.627Z,0
2024-02-26T03:50:19.358Z,0
2024-02-26T03:51:21.612Z,0
2024-02-26T03:52:23.232Z,0
2024-02-26T03:53:24.752Z,0
2024-02-26T03:54:27.025Z,0
2024-02-26T03:55:28.670Z,0
2024-02-26T03:56:30.245Z,0
2024-02-26T03:57:31.821Z,0
2024-02-26T03:58:33.542Z,0
2024-02-26T03:59:35.066Z,0
2024-02-26T04:00:37.861Z,0
2024-02-26T04:01:39.512Z,0
2024-02-26T04:02:41.720Z,0
2024-02-26T04:03:43.698Z,0
2024-02-26T04:04:46.395Z,0
2024-02-26T04:05:49.129Z,0
2024-02-26T04:06:51.614Z,0
2024-02-26T04:07:53.197Z,0
2024-02-26T04:08:55.130Z,0
2024-02-26T04:09:56.637Z,0
2024-02-26T04:10:58.711Z,0
2024-02-26T04:12:00.856Z,0
2024-02-26T04:13:02.549Z,0
2024-02-26T04:14:04.223Z,0
2024-02-26T04:15:06.474Z,0
2024-02-26T04:16:08.249Z,0
2024-02-26T04:17:09.739Z,0
2024-02-26T04:18:13.247Z,0
2024-02-26T04:19:16.028Z,0
2024-02-26T04:20:18.265Z,0
2024-02-26T04:21:20.594Z,0
2024-02-26T04:22:22.440Z,0
2024-02-26T04:23:24.711Z,0
2024-02-26T04:24:26.927Z,0
2024-02-26T04:25:28.642Z,0
2024-02-26T04:26:30.187Z,0
2024-02-26T04:27:31.813Z,0
2024-02-26T04:28:33.436Z,0
2024-02-26T04:29:35.185Z,0
2024-02-26T04:30:37.304Z,0
2024-02-26T04:31:39.095Z,0
2024-02-26T04:32:41.245Z,0
2024-02-26T04:33:44.254Z,0
2024-02-26T04:34:46.453Z,0
2024-02-26T04:35:48.723Z,0
2024-02-26T04:36:50.408Z,0
2024-02-26T04:37:52.139Z,0
2024-02-26T04:38:54.241Z,0
2024-02-26T04:39:55.899Z,0
2024-02-26T04:40:57.456Z,0
2024-02-26T04:41:59.284Z,0
2024-02-26T04:43:00.996Z,0
2024-02-26T04:44:02.606Z,0
2024-02-26T04:45:04.899Z,0
2024-02-26T04:46:06.538Z,0
2024-02-26T04:47:08.118Z,0
2024-02-26T04:48:11.328Z,0
2024-02-26T04:49:14.416Z,0
2024-02-26T04:50:16.051Z,0
2024-02-26T04:51:18.391Z,0
2024-02-26T04:52:20.419Z,0
2024-02-26T04:53:27.982Z,0
2024-02-26T04:54:30.229Z,0
2024-02-26T04:55:31.838Z,0
2024-02-26T04:56:33.976Z,0
2024-02-26T04:57:35.942Z,0
2024-02-26T04:58:37.461Z,0
2024-02-26T04:59:39.102Z,0
2024-02-26T05:00:41.184Z,0
2024-02-26T05:01:44.126Z,0
2024-02-26T05:02:46.906Z,0
2024-02-26T05:03:49.431Z,0
2024-02-26T05:04:51.088Z,0
2024-02-26T05:05:53.805Z,0
2024-02-26T05:06:57.180Z,0
2024-02-26T05:07:58.876Z,0
2024-02-26T05:09:01.159Z,0
2024-02-26T05:10:02.806Z,0
2024-02-26T05:11:04.926Z,0
2024-02-26T05:12:07.416Z,0
2024-02-26T05:13:09.172Z,0
2024-02-26T05:14:10.727Z,0
2024-02-26T05:15:13.048Z,0
2024-02-26T05:16:14.729Z,0
2024-02-26T05:17:16.366Z,0
2024-02-26T05:18:19.357Z,0
2024-02-26T05:19:22.101Z,0
2024-02-26T05:20:23.695Z,0
2024-02-26T05:21:26.241Z,0
2024-02-26T05:22:27.911Z,0
2024-02-26T05:23:29.625Z,0
2024-02-26T05:24:31.644Z,0
2024-02-26T05:25:33.434Z,0
2024-02-26T05:26:34.937Z,0
2024-02-26T05:27:36.483Z,0
2024-02-26T05:28:38.410Z,0
2024-02-26T05:29:40.088Z,0
2024-02-26T05:30:42.235Z,0
2024-02-26T05:31:44.003Z,0
2024-02-26T05:32:46.978Z,0
2024-02-26T05:34:51.573Z,0
2024-02-26T05:35:53.927Z,0
2024-02-26T05:36:55.817Z,0
2024-02-26T05:37:57.441Z,0.1
2024-02-26T05:38:59.614Z,0.1
2024-02-26T05:40:01.304Z,0.1
2024-02-26T05:41:02.839Z,0.2
2024-02-26T05:42:04.817Z,0.1
2024-02-26T05:43:06.450Z,0.2
2024-02-26T05:44:08.003Z,0.3
2024-02-26T05:45:10.181Z,0.3
2024-02-26T05:46:11.987Z,0.4
2024-02-26T05:47:13.585Z,0.4
2024-02-26T05:48:16.271Z,0.4
2024-02-26T05:49:19.096Z,0.6
2024-02-26T05:50:20.769Z,0.7
2024-02-26T05:51:23.754Z,0.9
2024-02-26T05:52:27.915Z,1.2
2024-02-26T05:53:29.494Z,1.1
2024-02-26T05:54:31.862Z,1.7
2024-02-26T05:55:33.537Z,2
2024-02-26T05:56:35.316Z,2.5
2024-02-26T05:57:37.818Z,3
2024-02-26T05:58:39.763Z,3.6
2024-02-26T05:59:41.451Z,4.3
2024-02-26T06:00:44.473Z,5.1
2024-02-26T06:01:46.285Z,6.1
2024-02-26T06:02:48.464Z,7.2
2024-02-26T06:03:50.680Z,8.5
2024-02-26T06:04:52.572Z,10.3
2024-02-26T06:05:55.240Z,12.7
2024-02-26T06:06:57.320Z,15.8
2024-02-26T06:07:59.342Z,19.1
2024-02-26T06:09:01.564Z,22.2
2024-02-26T06:10:03.163Z,25.2
2024-02-26T06:11:05.284Z,27.5
2024-02-26T06:12:07.487Z,30.8
2024-02-26T06:13:09.180Z,35.6
2024-02-26T06:14:10.907Z,39.1
2024-02-26T06:15:13.359Z,40.5
2024-02-26T06:16:15.086Z,43.6
2024-02-26T06:17:16.627Z,48.2
2024-02-26T06:18:19.420Z,54
2024-02-26T06:19:22.045Z,61.2
2024-02-26T06:20:23.736Z,69.5
2024-02-26T06:21:26.331Z,79.6
2024-02-26T06:22:27.903Z,91.1
2024-02-26T06:23:29.423Z,103.7
2024-02-26T06:24:31.661Z,120.2
2024-02-26T06:25:33.473Z,136.8
2024-02-26T06:26:35.230Z,154.8
2024-02-26T06:27:36.853Z,175
2024-02-26T06:28:38.358Z,198.7
2024-02-26T06:29:39.872Z,227.5
2024-02-26T06:30:42.040Z,263.5
2024-02-26T06:31:43.937Z,305.3
2024-02-26T06:32:46.951Z,344.2
2024-02-26T06:33:49.997Z,367.2
2024-02-26T06:34:52.821Z,385.9
2024-02-26T06:35:54.851Z,400.3
2024-02-26T06:36:56.605Z,426.2
2024-02-26T06:37:58.145Z,457.9
2024-02-26T06:39:00.211Z,495.4
2024-02-26T06:40:02.362Z,527
2024-02-26T06:41:03.958Z,550.1
2024-02-26T06:42:06.162Z,564.5
2024-02-26T06:43:07.974Z,576
2024-02-26T06:44:09.617Z,576
2024-02-26T06:45:11.798Z,573.1
2024-02-26T06:46:13.416Z,561.6
2024-02-26T06:47:14.924Z,550.1
2024-02-26T06:48:17.440Z,538.6
2024-02-26T06:49:20.424Z,535.7
2024-02-26T06:50:22.038Z,535.7
2024-02-26T06:51:25.109Z,538.6
2024-02-26T06:52:26.653Z,541.4
2024-02-26T06:53:28.344Z,544.3
2024-02-26T06:54:30.697Z,544.3
2024-02-26T06:55:32.553Z,544.3
2024-02-26T06:56:34.127Z,544.3
2024-02-26T06:57:35.749Z,541.4
2024-02-26T06:58:37.906Z,538.6
2024-02-26T06:59:40.695Z,532.8
2024-02-26T07:00:43.655Z,524.2
2024-02-26T07:01:45.396Z,512.6
2024-02-26T07:02:47.765Z,498.2
2024-02-26T07:03:50.987Z,486.7
2024-02-26T07:04:52.871Z,478.1
2024-02-26T07:05:55.325Z,469.4
2024-02-26T07:06:57.959Z,466.6
2024-02-26T07:07:59.528Z,466.6
2024-02-26T07:09:01.767Z,475.2
2024-02-26T07:10:03.462Z,489.6
2024-02-26T07:11:05.523Z,509.8
2024-02-26T07:12:07.492Z,541.4
2024-02-26T07:13:09.047Z,581.8
2024-02-26T07:14:10.526Z,636.5
2024-02-26T07:15:12.849Z,702.7
2024-02-26T07:16:14.598Z,777.6
2024-02-26T07:17:16.101Z,852.5
2024-02-26T07:18:19.116Z,921.6
2024-02-26T07:19:22.056Z,973.4
2024-02-26T07:20:23.720Z,1209.6
2024-02-26T07:21:26.195Z,1267.2
2024-02-26T07:22:27.763Z,1313.3
2024-02-26T07:23:29.312Z,1365.1
2024-02-26T07:24:31.425Z,1428.5
2024-02-26T07:25:33.066Z,1486.1
2024-02-26T07:26:34.709Z,1532.2
2024-02-26T07:27:36.538Z,1589.8
2024-02-26T07:28:38.291Z,1612.8
2024-02-26T07:29:39.813Z,1647.4
2024-02-26T07:30:41.329Z,1693.4
2024-02-26T07:31:43.771Z,1785.6
2024-02-26T07:32:52.782Z,1935.4
2024-02-26T07:33:55.524Z,2050.6
2024-02-26T07:34:57.843Z,2177.3
2024-02-26T07:35:59.858Z,2281
2024-02-26T07:37:01.512Z,2338.6
2024-02-26T07:38:03.259Z,2384.6
2024-02-26T07:39:05.515Z,2407.7
2024-02-26T07:40:07.184Z,2430.7
2024-02-26T07:41:08.776Z,2453.8
2024-02-26T07:42:11.443Z,2488.3
2024-02-26T07:43:13.238Z,2534.4
2024-02-26T07:44:14.917Z,2522.9
2024-02-26T07:45:17.237Z,2476.8
2024-02-26T07:46:18.884Z,2442.2
2024-02-26T07:47:20.434Z,2442.2
2024-02-26T07:48:23.078Z,2465.3
2024-02-26T07:49:25.819Z,2511.4
2024-02-26T07:50:27.526Z,2534.4
2024-02-26T07:51:29.882Z,2534.4
2024-02-26T07:52:31.517Z,2534.4
2024-02-26T07:53:33.006Z,2603.5
2024-02-26T07:54:35.485Z,2695.7
2024-02-26T07:55:37.142Z,2753.3
2024-02-26T07:56:38.618Z,2776.3
2024-02-26T07:57:40.268Z,2764.8
2024-02-26T07:58:41.864Z,2753.3
2024-02-26T07:59:44.422Z,2730.2
2024-02-26T08:00:45.987Z,2695.7
2024-02-26T08:02:00.246Z,2649.6
2024-02-26T08:03:03.518Z,2626.6
2024-02-26T08:04:06.351Z,2580.5
2024-02-26T08:05:08.280Z,2534.4
2024-02-26T08:06:10.889Z,2511.4
2024-02-26T08:07:13.453Z,2499.8
2024-02-26T08:08:15.181Z,2476.8
2024-02-26T08:09:17.751Z,2465.3
2024-02-26T08:10:19.363Z,2465.3
2024-02-26T08:11:21.640Z,2465.3
2024-02-26T08:12:23.792Z,2476.8
2024-02-26T08:13:25.489Z,2511.4
2024-02-26T08:14:27.753Z,2580.5
2024-02-26T08:15:30.070Z,2661.1
2024-02-26T08:16:38.039Z,2741.8
2024-02-26T08:17:40.203Z,2799.4
2024-02-26T08:19:45.749Z,2833.9
2024-02-26T08:20:47.698Z,2833.9
2024-02-26T08:21:49.373Z,2810.9
2024-02-26T08:22:50.907Z,2810.9
2024-02-26T08:23:52.848Z,2822.4
2024-02-26T08:24:54.456Z,2845.4
2024-02-26T08:25:56.004Z,2868.5
2024-02-26T08:26:57.984Z,2891.5
2024-02-26T08:27:59.600Z,2914.6
2024-02-26T08:29:01.531Z,2926.1
2024-02-26T08:30:04.035Z,2914.6
2024-02-26T08:31:05.923Z,2926.1
2024-02-26T08:32:07.595Z,2914.6
2024-02-26T08:33:10.433Z,2949.1
2024-02-26T08:34:13.584Z,2995.2
2024-02-26T08:35:15.768Z,2995.2
2024-02-26T08:36:18.268Z,3018.2
2024-02-26T08:37:19.987Z,3018.2
2024-02-26T08:38:21.673Z,3041.3
2024-02-26T08:39:23.721Z,3018.2
2024-02-26T08:40:25.438Z,2995.2
2024-02-26T08:41:26.993Z,2995.2
2024-02-26T08:42:28.996Z,2995.2
2024-02-26T08:43:30.776Z,3018.2
2024-02-26T08:44:32.500Z,3018.2
2024-02-26T08:45:35.475Z,3041.3
2024-02-26T08:46:37.204Z,3018.2
2024-02-26T08:47:39.823Z,3018.2
2024-02-26T08:48:43.313Z,2995.2
2024-02-26T08:49:45.966Z,2995.2
2024-02-26T08:50:47.907Z,2972.2
2024-02-26T08:51:49.560Z,2926.1
2024-02-26T08:52:51.085Z,2880
2024-02-26T08:53:53.117Z,2845.4
2024-02-26T08:54:54.726Z,2753.3
2024-02-26T08:55:56.246Z,2707.2
2024-02-26T08:56:59.578Z,2684.2
2024-02-26T08:58:01.256Z,2661.1
2024-02-26T08:59:02.799Z,2603.5
2024-02-26T09:00:05.166Z,2626.6
2024-02-26T09:01:07.757Z,2649.6
2024-02-26T09:02:09.671Z,2672.6
2024-02-26T09:03:11.874Z,2695.7
2024-02-26T09:04:14.116Z,2707.2
2024-02-26T09:05:15.774Z,2684.2
2024-02-26T09:06:18.651Z,2684.2
2024-02-26T09:07:20.797Z,2695.7
2024-02-26T09:08:22.425Z,2741.8
2024-02-26T09:09:24.488Z,2741.8
2024-02-26T09:10:26.007Z,2718.7
2024-02-26T09:11:28.172Z,2718.7
2024-02-26T09:12:30.434Z,2730.2
2024-02-26T09:13:32.354Z,2741.8
2024-02-26T09:14:33.864Z,2764.8
2024-02-26T09:15:36.498Z,2822.4
2024-02-26T09:16:38.028Z,2949.1
2024-02-26T09:17:40.395Z,2995.2
2024-02-26T09:18:43.411Z,3041.3
2024-02-26T09:19:46.043Z,3156.5
2024-02-26T09:20:48.228Z,3156.5
2024-02-26T09:21:49.837Z,3271.7
2024-02-26T09:22:51.305Z,3340.8
2024-02-26T09:23:53.644Z,3548.2
2024-02-26T09:24:55.533Z,3548.2
2024-02-26T09:25:57.012Z,3709.4
2024-02-26T09:26:59.017Z,3778.6
2024-02-26T09:28:00.709Z,4055
2024-02-26T09:29:02.565Z,4216.3
2024-02-26T09:30:05.361Z,4608
2024-02-26T09:31:07.425Z,4308.5
2024-02-26T09:32:09.214Z,4078.1
2024-02-26T09:33:11.955Z,4354.6
2024-02-26T09:34:14.548Z,4285.4
2024-02-26T09:35:17.729Z,4423.7
2024-02-26T09:36:20.034Z,4377.6
2024-02-26T09:37:23.883Z,4216.3
2024-02-26T09:38:25.425Z,4239.4
2024-02-26T09:39:27.550Z,4308.5
2024-02-26T09:40:29.433Z,4285.4
2024-02-26T09:41:31.097Z,4838.4
2024-02-26T09:42:33.213Z,4838.4
2024-02-26T09:43:34.800Z,4907.5
2024-02-26T09:44:36.317Z,4953.6
2024-02-26T09:45:38.572Z,5230.1
2024-02-26T09:46:40.561Z,5022.7
2024-02-26T09:47:43.075Z,5091.8
2024-02-26T09:48:46.124Z,5829.1
2024-02-26T09:49:48.827Z,6681.6
2024-02-26T09:50:50.850Z,6451.2
2024-02-26T09:51:52.538Z,7280.6
2024-02-26T09:52:54.148Z,7511
2024-02-26T09:53:56.591Z,6958.1
2024-02-26T09:54:58.250Z,5690.9
2024-02-26T09:55:59.968Z,4815.4
2024-02-26T09:57:07.056Z,4769.3
2024-02-26T09:58:10.072Z,4400.6
2024-02-26T09:59:11.713Z,4216.3
2024-02-26T10:00:14.056Z,4055
2024-02-26T10:01:17.584Z,3847.7
2024-02-26T10:02:18.361Z,3824.6
2024-02-26T10:03:20.734Z,4124.2
2024-02-26T10:04:23.199Z,4032
2024-02-26T10:05:25.122Z,3893.8
2024-02-26T10:06:27.802Z,3939.8
2024-02-26T10:07:29.754Z,3778.6
2024-02-26T10:08:31.339Z,3709.4
2024-02-26T10:09:33.708Z,3755.5
2024-02-26T10:10:35.507Z,3824.6
2024-02-26T10:11:39.021Z,3847.7
2024-02-26T10:12:41.283Z,3594.2
2024-02-26T10:13:43.000Z,2188.8
2024-02-26T10:14:45.629Z,2108.2
2024-02-26T10:15:47.261Z,2050.6
2024-02-26T10:16:49.075Z,1981.4
2024-02-26T10:17:52.106Z,1877.8
2024-02-26T10:19:02.583Z,1705
2024-02-26T10:20:06.096Z,1658.9
2024-02-26T10:21:07.960Z,1624.3
2024-02-26T10:22:09.725Z,1601.3
2024-02-26T10:23:11.371Z,1555.2
2024-02-26T10:24:13.491Z,1509.1
2024-02-26T10:25:14.975Z,1463
2024-02-26T10:26:16.878Z,1382.4
2024-02-26T10:27:19.347Z,1273
2024-02-26T10:28:21.192Z,1267.2
2024-02-26T10:29:22.766Z,1307.5
2024-02-26T10:30:26.120Z,1393.9
2024-02-26T10:31:27.760Z,1509.1
2024-02-26T10:32:29.451Z,1624.3
2024-02-26T10:33:45.047Z,1693.4
2024-02-26T10:34:47.449Z,1716.5
2024-02-26T10:35:50.237Z,1739.5
2024-02-26T10:36:57.404Z,1774.1
2024-02-26T10:37:59.114Z,1808.6
2024-02-26T10:39:01.033Z,1820.2
2024-02-26T10:40:02.776Z,1774.1
2024-02-26T10:41:04.313Z,1693.4
2024-02-26T10:42:06.205Z,1635.8
2024-02-26T10:43:08.105Z,1624.3
2024-02-26T10:44:09.846Z,1612.8
2024-02-26T10:45:12.221Z,1589.8
2024-02-26T10:46:14.718Z,1555.2
2024-02-26T10:47:16.292Z,1543.7
2024-02-26T10:48:19.277Z,1532.2
2024-02-26T10:49:24.779Z,1543.7
2024-02-26T10:50:26.103Z,1555.2
2024-02-26T10:51:29.081Z,1555.2
2024-02-26T10:52:30.645Z,1555.2
2024-02-26T10:53:32.985Z,1555.2
2024-02-26T10:54:35.558Z,1566.7
2024-02-26T10:55:37.780Z,1589.8
2024-02-26T10:56:39.541Z,1612.8
2024-02-26T10:57:43.380Z,1647.4
2024-02-26T10:58:45.307Z,1681.9
2024-02-26T10:59:47.845Z,1705
2024-02-26T11:00:50.884Z,1728
2024-02-26T11:01:53.851Z,1751
2024-02-26T11:02:55.965Z,1774.1
2024-02-26T11:03:58.259Z,1854.7
2024-02-26T11:05:03.448Z,1900.8
2024-02-26T11:06:06.165Z,1889.3
2024-02-26T11:07:13.280Z,1543.7
2024-02-26T11:08:14.932Z,1543.7
2024-02-26T11:09:17.622Z,1532.2
2024-02-26T11:10:19.352Z,1532.2
2024-02-26T11:11:21.293Z,1520.6
2024-02-26T11:12:23.538Z,1509.1
2024-02-26T11:13:25.395Z,1486.1
2024-02-26T11:14:27.709Z,1445.8
2024-02-26T11:15:30.054Z,1411.2
2024-02-26T11:16:31.836Z,1388.2
2024-02-26T11:17:34.253Z,1370.9
2024-02-26T11:18:36.944Z,1342.1
2024-02-26T11:19:40.512Z,1313.3
2024-02-26T11:20:42.853Z,1284.5
2024-02-26T11:21:44.814Z,1249.9
2024-02-26T11:22:46.939Z,1221.1
2024-02-26T11:23:48.878Z,1203.8
2024-02-26T11:24:50.549Z,1192.3
2024-02-26T11:25:52.184Z,1198.1
2024-02-26T11:26:54.177Z,1209.6
2024-02-26T11:27:58.528Z,1232.6
2024-02-26T11:29:00.204Z,1255.7
2024-02-26T11:30:03.414Z,1278.7
2024-02-26T11:31:05.071Z,1347.8
2024-02-26T11:32:06.641Z,1365.1
2024-02-26T11:33:09.441Z,1370.9
2024-02-26T11:34:12.951Z,1376.6
2024-02-26T11:35:15.418Z,1376.6
2024-02-26T11:36:17.924Z,1376.6
2024-02-26T11:37:20.629Z,1376.6
2024-02-26T11:38:22.605Z,1365.1
2024-02-26T11:39:24.669Z,1342.1
2024-02-26T11:40:26.395Z,1296
2024-02-26T11:41:27.956Z,1238.4
2024-02-26T11:42:30.390Z,1169.3
2024-02-26T11:43:32.052Z,1105.9
2024-02-26T11:44:33.681Z,1065.6
2024-02-26T11:45:35.976Z,1042.6
2024-02-26T11:46:37.468Z,1042.6
2024-02-26T11:47:40.125Z,1059.8
2024-02-26T11:48:42.700Z,1071.4
2024-02-26T11:49:45.433Z,1071.4
2024-02-26T11:50:47.623Z,1059.8
2024-02-26T11:51:49.712Z,1048.3
2024-02-26T11:52:51.513Z,1036.8
2024-02-26T11:53:53.759Z,1031
2024-02-26T11:54:56.012Z,1036.8
2024-02-26T11:55:57.546Z,1048.3
2024-02-26T11:56:59.618Z,1082.9
2024-02-26T11:58:01.172Z,1117.4
2024-02-26T11:59:04.119Z,1157.8
2024-02-26T12:00:06.496Z,1186.6
2024-02-26T12:01:08.933Z,1215.4
2024-02-26T12:02:10.418Z,1238.4
2024-02-26T12:03:12.320Z,1255.7
2024-02-26T12:04:14.332Z,1267.2
2024-02-26T12:05:16.904Z,1261.4
2024-02-26T12:06:19.253Z,1249.9
2024-02-26T12:07:21.703Z,1226.9
2024-02-26T12:08:23.477Z,1192.3
2024-02-26T12:09:26.108Z,1157.8
2024-02-26T12:10:28.117Z,1123.2
2024-02-26T12:11:30.292Z,1088.6
2024-02-26T12:12:32.606Z,1054.1
2024-02-26T12:13:34.198Z,1042.6
2024-02-26T12:14:36.491Z,1036.8
2024-02-26T12:15:38.807Z,1042.6
2024-02-26T12:16:40.855Z,1077.1
2024-02-26T12:17:42.937Z,1123.2
2024-02-26T12:18:45.468Z,1192.3
2024-02-26T12:19:47.772Z,1267.2
2024-02-26T12:20:49.940Z,1353.6
2024-02-26T12:21:51.652Z,1440
2024-02-26T12:22:53.722Z,1509.1
2024-02-26T12:23:56.048Z,1555.2
2024-02-26T12:24:57.987Z,1589.8
2024-02-26T12:25:59.492Z,1612.8
2024-02-26T12:27:01.756Z,1635.8
2024-02-26T12:28:03.417Z,1681.9
2024-02-26T12:29:04.933Z,1716.5
2024-02-26T12:30:07.099Z,1739.5
2024-02-26T12:31:09.004Z,1739.5
2024-02-26T12:32:10.709Z,1716.5
2024-02-26T12:33:13.205Z,1693.4
2024-02-26T12:34:16.106Z,1658.9
2024-02-26T12:35:18.428Z,1635.8
2024-02-26T12:36:20.657Z,1612.8
2024-02-26T12:37:22.258Z,1601.3
2024-02-26T12:38:27.709Z,1578.2
2024-02-26T12:39:30.443Z,1578.2
2024-02-26T12:40:32.536Z,1589.8
2024-02-26T12:41:34.043Z,1589.8
2024-02-26T12:42:36.249Z,1589.8
2024-02-26T12:43:37.773Z,1566.7
2024-02-26T12:44:39.405Z,1543.7
2024-02-26T12:45:41.406Z,1509.1
2024-02-26T12:46:43.972Z,1486.1
2024-02-26T12:47:46.227Z,1457.3
2024-02-26T12:48:49.338Z,1440
2024-02-26T12:49:52.235Z,1417
2024-02-26T12:50:54.523Z,1411.2
2024-02-26T12:51:56.054Z,1399.7
2024-02-26T12:52:57.659Z,1382.4
2024-02-26T12:53:59.989Z,1353.6
2024-02-26T12:55:01.916Z,1313.3
2024-02-26T12:56:09.151Z,1273
2024-02-26T12:57:11.476Z,1244.2
2024-02-26T12:58:13.229Z,1215.4
2024-02-26T12:59:15.003Z,1192.3
2024-02-26T13:00:17.488Z,1169.3
2024-02-26T13:01:19.680Z,1146.2
2024-02-26T13:02:21.299Z,1111.7
2024-02-26T13:03:24.827Z,1082.9
2024-02-26T13:04:26.804Z,1054.1
2024-02-26T13:05:29.142Z,1036.8
2024-02-26T13:06:31.620Z,869.8
2024-02-26T13:07:33.256Z,1134.7
2024-02-26T13:08:34.717Z,1105.9
2024-02-26T13:09:37.576Z,927.4
2024-02-26T13:10:39.094Z,904.3
2024-02-26T13:11:41.221Z,898.6
2024-02-26T13:12:42.805Z,892.8
2024-02-26T13:13:44.513Z,619.2
2024-02-26T13:14:46.200Z,616.3
2024-02-26T13:15:47.866Z,616.3
2024-02-26T13:16:49.478Z,627.8
2024-02-26T13:17:52.507Z,642.2
2024-02-26T13:18:55.972Z,668.2
2024-02-26T13:19:58.432Z,694.1
2024-02-26T13:21:00.456Z,720
2024-02-26T13:22:02.097Z,737.3
2024-02-26T13:23:03.833Z,748.8
2024-02-26T13:24:06.048Z,754.6
2024-02-26T13:25:07.880Z,760.3
2024-02-26T13:26:10.048Z,748.8
2024-02-26T13:27:12.413Z,737.3
2024-02-26T13:28:14.510Z,725.8
2024-02-26T13:29:16.025Z,705.6
2024-02-26T13:30:18.562Z,682.6
2024-02-26T13:31:20.239Z,659.5
2024-02-26T13:32:21.700Z,642.2
2024-02-26T13:33:24.826Z,630.7
2024-02-26T13:34:27.432Z,627.8
2024-02-26T13:35:29.037Z,633.6
2024-02-26T13:36:31.455Z,645.1
2024-02-26T13:37:33.157Z,653.8
2024-02-26T13:38:34.726Z,665.3
2024-02-26T13:39:43.544Z,676.8
2024-02-26T13:40:45.646Z,691.2
2024-02-26T13:41:47.976Z,699.8
2024-02-26T13:42:50.172Z,711.4
2024-02-26T13:43:51.977Z,717.1
2024-02-26T13:44:53.980Z,722.9
2024-02-26T13:45:56.374Z,728.6
2024-02-26T13:46:57.893Z,737.3
2024-02-26T13:48:00.165Z,743
2024-02-26T13:49:02.964Z,754.6
2024-02-26T13:50:05.716Z,748.8
2024-02-26T13:51:07.643Z,748.8
2024-02-26T13:52:09.220Z,743
2024-02-26T13:53:10.763Z,743
2024-02-26T13:54:13.113Z,754.6
2024-02-26T13:55:14.883Z,754.6
2024-02-26T13:56:16.791Z,754.6
2024-02-26T13:57:19.063Z,748.8
2024-02-26T13:58:21.045Z,731.5
2024-02-26T13:59:22.596Z,714.2
2024-02-26T14:00:24.713Z,697